PWSweather.com
Personal Weather Stations
Station Observations
THRCKWTHR1
Aveley, EssexGB RM154EL

AveleyEssexGB RM154EL

Lat: 51.5000552, Lon: 0.2501753000000235

Elevation: 98.5

Station Type: Oregon Scientific WMR88

www.facebook.com/thurrockweather

High Low Average
Temperature 61.3°F16.3°C 43.7°F6.5°C 52.0°F11.1°C
Dew Point 55.4°F13.0°C 42.3°F5.7°C 48.1°F8.9°C
Winds 12.3 mph 19.8 kmh Calm Calm 2.0 mph SE3.2 kmh SE
Wind Gusts 12.3 mph19.8 kmh -- 3.0 mph4.8 kmh
Humidity 95% 75% 87%
Pressure 30.21 in1023.0 mb 30.12 in1020.0 mb -
Precipitation 0.00 in0.0 mm - -
Hour Temp Dew Point Humidity Winds Wind Gusts Pressure Precip Precip Rate Daily Precip Total
12:00 AM 45.0°F7.2°C 43.3°F6.3°C 94% Calm Calm -- 30.21 in1023.0 mb 0.00 in0.0 mm 0.00 in0.0 mm 0.00 in0.0 mm
12:05 AM 45.0°F7.2°C 43.3°F6.3°C 94% Calm Calm -- 30.21 in1023.0 mb 0.00 in0.0 mm 0.00 in0.0 mm 0.00 in0.0 mm
12:10 AM 44.8°F7.1°C 43.2°F6.2°C 94% Calm Calm -- 30.21 in1023.0 mb 0.00 in0.0 mm 0.00 in0.0 mm 0.00 in0.0 mm
12:15 AM 44.8°F7.1°C 43.2°F6.2°C 94% Calm Calm -- 30.18 in1022.0 mb 0.00 in0.0 mm 0.00 in0.0 mm 0.00 in0.0 mm
12:20 AM 44.8°F7.1°C 43.2°F6.2°C 94% Calm Calm -- 30.18 in1022.0 mb 0.00 in0.0 mm 0.00 in0.0 mm 0.00 in0.0 mm
12:25 AM 44.8°F7.1°C 43.2°F6.2°C 94% Calm Calm -- 30.18 in1022.0 mb 0.00 in0.0 mm 0.00 in0.0 mm 0.00 in0.0 mm
12:30 AM 44.8°F7.1°C 43.2°F6.2°C 94% Calm Calm -- 30.18 in1022.0 mb 0.00 in0.0 mm 0.00 in0.0 mm 0.00 in0.0 mm
12:35 AM 44.8°F7.1°C 43.2°F6.2°C 94% Calm Calm -- 30.18 in1022.0 mb 0.00 in0.0 mm 0.00 in0.0 mm 0.00 in0.0 mm
12:40 AM 44.8°F7.1°C 43.2°F6.2°C 94% Calm Calm -- 30.18 in1022.0 mb 0.00 in0.0 mm 0.00 in0.0 mm 0.00 in0.0 mm
12:45 AM 44.8°F7.1°C 43.2°F6.2°C 94% Calm Calm -- 30.18 in1022.0 mb 0.00 in0.0 mm 0.00 in0.0 mm 0.00 in0.0 mm
12:50 AM 44.6°F7.0°C 43.0°F6.1°C 94% Calm Calm -- 30.18 in1022.0 mb 0.00 in0.0 mm 0.00 in0.0 mm 0.00 in0.0 mm
12:55 AM 44.6°F7.0°C 43.0°F6.1°C 94% Calm Calm -- 30.18 in1022.0 mb 0.00 in0.0 mm 0.00 in0.0 mm 0.00 in0.0 mm
01:00 AM 44.6°F7.0°C 43.0°F6.1°C 94% Calm Calm -- 30.18 in1022.0 mb 0.00 in0.0 mm 0.00 in0.0 mm 0.00 in0.0 mm
01:05 AM 44.6°F7.0°C 43.0°F6.1°C 94% Calm Calm -- 30.18 in1022.0 mb 0.00 in0.0 mm 0.00 in0.0 mm 0.00 in0.0 mm
01:10 AM 44.6°F7.0°C 42.7°F5.9°C 93% Calm Calm -- 30.18 in1022.0 mb 0.00 in0.0 mm 0.00 in0.0 mm 0.00 in0.0 mm
01:15 AM 44.6°F7.0°C 42.7°F5.9°C 93% Calm Calm -- 30.18 in1022.0 mb 0.00 in0.0 mm 0.00 in0.0 mm 0.00 in0.0 mm
01:20 AM 44.8°F7.1°C 42.9°F6.1°C 93% Calm Calm -- 30.18 in1022.0 mb 0.00 in0.0 mm 0.00 in0.0 mm 0.00 in0.0 mm
01:25 AM 44.6°F7.0°C 42.7°F5.9°C 93% Calm Calm -- 30.18 in1022.0 mb 0.00 in0.0 mm 0.00 in0.0 mm 0.00 in0.0 mm
01:30 AM 44.6°F7.0°C 42.7°F5.9°C 93% Calm Calm -- 30.18 in1022.0 mb 0.00 in0.0 mm 0.00 in0.0 mm 0.00 in0.0 mm
01:35 AM 44.6°F7.0°C 42.7°F5.9°C 93% Calm Calm -- 30.18 in1022.0 mb 0.00 in0.0 mm 0.00 in0.0 mm 0.00 in0.0 mm
01:40 AM 44.6°F7.0°C 42.7°F5.9°C 93% Calm Calm -- 30.15 in1021.0 mb 0.00 in0.0 mm 0.00 in0.0 mm 0.00 in0.0 mm
01:45 AM 44.4°F6.9°C 42.8°F6.0°C 94% Calm Calm -- 30.15 in1021.0 mb 0.00 in0.0 mm 0.00 in0.0 mm 0.00 in0.0 mm
01:50 AM 44.4°F6.9°C 42.8°F6.0°C 94% Calm Calm -- 30.15 in1021.0 mb 0.00 in0.0 mm 0.00 in0.0 mm 0.00 in0.0 mm
01:55 AM 44.2°F6.8°C 42.6°F5.9°C 94% Calm Calm -- 30.18 in1022.0 mb 0.00 in0.0 mm 0.00 in0.0 mm 0.00 in0.0 mm
02:00 AM 44.2°F6.8°C 42.6°F5.9°C 94% Calm Calm -- 30.18 in1022.0 mb 0.00 in0.0 mm 0.00 in0.0 mm 0.00 in0.0 mm
02:05 AM 44.2°F6.8°C 42.6°F5.9°C 94% Calm Calm -- 30.18 in1022.0 mb 0.00 in0.0 mm 0.00 in0.0 mm 0.00 in0.0 mm
02:10 AM 44.2°F6.8°C 42.6°F5.9°C 94% Calm Calm -- 30.18 in1022.0 mb 0.00 in0.0 mm 0.00 in0.0 mm 0.00 in0.0 mm
02:15 AM 44.2°F6.8°C 42.6°F5.9°C 94% Calm Calm -- 30.15 in1021.0 mb 0.00 in0.0 mm 0.00 in0.0 mm 0.00 in0.0 mm
02:20 AM 44.2°F6.8°C 42.3°F5.7°C 93% Calm Calm -- 30.15 in1021.0 mb 0.00 in0.0 mm 0.00 in0.0 mm 0.00 in0.0 mm
02:25 AM 44.4°F6.9°C 42.5°F5.8°C 93% Calm Calm -- 30.15 in1021.0 mb 0.00 in0.0 mm 0.00 in0.0 mm 0.00 in0.0 mm
02:30 AM 44.4°F6.9°C 42.5°F5.8°C 93% Calm Calm -- 30.15 in1021.0 mb 0.00 in0.0 mm 0.00 in0.0 mm 0.00 in0.0 mm
02:35 AM 44.4°F6.9°C 42.5°F5.8°C 93% Calm Calm -- 30.15 in1021.0 mb 0.00 in0.0 mm 0.00 in0.0 mm 0.00 in0.0 mm
02:40 AM 44.2°F6.8°C 42.3°F5.7°C 93% Calm Calm -- 30.15 in1021.0 mb 0.00 in0.0 mm 0.00 in0.0 mm 0.00 in0.0 mm
02:45 AM 44.2°F6.8°C 42.3°F5.7°C 93% Calm Calm -- 30.15 in1021.0 mb 0.00 in0.0 mm 0.00 in0.0 mm 0.00 in0.0 mm
02:50 AM 44.2°F6.8°C 42.3°F5.7°C 93% Calm Calm -- 30.15 in1021.0 mb 0.00 in0.0 mm 0.00 in0.0 mm 0.00 in0.0 mm
02:55 AM 44.2°F6.8°C 42.3°F5.7°C 93% Calm Calm -- 30.15 in1021.0 mb 0.00 in0.0 mm 0.00 in0.0 mm 0.00 in0.0 mm
03:00 AM 44.2°F6.8°C 42.3°F5.7°C 93% Calm Calm -- 30.15 in1021.0 mb 0.00 in0.0 mm 0.00 in0.0 mm 0.00 in0.0 mm
03:05 AM 44.2°F6.8°C 42.3°F5.7°C 93% Calm Calm -- 30.15 in1021.0 mb 0.00 in0.0 mm 0.00 in0.0 mm 0.00 in0.0 mm
03:10 AM 44.2°F6.8°C 42.3°F5.7°C 93% Calm Calm -- 30.15 in1021.0 mb 0.00 in0.0 mm 0.00 in0.0 mm 0.00 in0.0 mm
03:15 AM 44.2°F6.8°C 42.3°F5.7°C 93% Calm Calm -- 30.15 in1021.0 mb 0.00 in0.0 mm 0.00 in0.0 mm 0.00 in0.0 mm
03:20 AM 44.2°F6.8°C 42.3°F5.7°C 93% Calm Calm -- 30.15 in1021.0 mb 0.00 in0.0 mm 0.00 in0.0 mm 0.00 in0.0 mm
03:25 AM 44.2°F6.8°C 42.3°F5.7°C 93% Calm Calm -- 30.15 in1021.0 mb 0.00 in0.0 mm 0.00 in0.0 mm 0.00 in0.0 mm
03:30 AM 44.1°F6.7°C 42.4°F5.8°C 94% Calm Calm -- 30.15 in1021.0 mb 0.00 in0.0 mm 0.00 in0.0 mm 0.00 in0.0 mm
03:35 AM 44.1°F6.7°C 42.4°F5.8°C 94% Calm Calm -- 30.15 in1021.0 mb 0.00 in0.0 mm 0.00 in0.0 mm 0.00 in0.0 mm
03:40 AM 44.1°F6.7°C 42.4°F5.8°C 94% Calm Calm -- 30.15 in1021.0 mb 0.00 in0.0 mm 0.00 in0.0 mm 0.00 in0.0 mm
03:45 AM 44.1°F6.7°C 42.4°F5.8°C 94% Calm Calm -- 30.15 in1021.0 mb 0.00 in0.0 mm 0.00 in0.0 mm 0.00 in0.0 mm
03:50 AM 44.1°F6.7°C 42.4°F5.8°C 94% Calm Calm -- 30.15 in1021.0 mb 0.00 in0.0 mm 0.00 in0.0 mm 0.00 in0.0 mm
03:55 AM 43.9°F6.6°C 42.3°F5.7°C 94% Calm Calm -- 30.15 in1021.0 mb 0.00 in0.0 mm 0.00 in0.0 mm 0.00 in0.0 mm
04:00 AM 43.9°F6.6°C 42.3°F5.7°C 94% Calm Calm -- 30.15 in1021.0 mb 0.00 in0.0 mm 0.00 in0.0 mm 0.00 in0.0 mm
04:05 AM 43.9°F6.6°C 42.3°F5.7°C 94% Calm Calm -- 30.15 in1021.0 mb 0.00 in0.0 mm 0.00 in0.0 mm 0.00 in0.0 mm
04:10 AM 43.9°F6.6°C 42.3°F5.7°C 94% Calm Calm -- 30.15 in1021.0 mb 0.00 in0.0 mm 0.00 in0.0 mm 0.00 in0.0 mm
04:15 AM 43.9°F6.6°C 42.3°F5.7°C 94% Calm Calm -- 30.15 in1021.0 mb 0.00 in0.0 mm 0.00 in0.0 mm 0.00 in0.0 mm
04:20 AM 43.7°F6.5°C 42.4°F5.8°C 95% Calm Calm -- 30.15 in1021.0 mb 0.00 in0.0 mm 0.00 in0.0 mm 0.00 in0.0 mm
04:25 AM 43.7°F6.5°C 42.4°F5.8°C 95% Calm Calm -- 30.15 in1021.0 mb 0.00 in0.0 mm 0.00 in0.0 mm 0.00 in0.0 mm
04:30 AM 43.7°F6.5°C 42.4°F5.8°C 95% Calm Calm -- 30.15 in1021.0 mb 0.00 in0.0 mm 0.00 in0.0 mm 0.00 in0.0 mm
04:35 AM 43.9°F6.6°C 42.5°F5.8°C 95% Calm Calm -- 30.15 in1021.0 mb 0.00 in0.0 mm 0.00 in0.0 mm 0.00 in0.0 mm
04:40 AM 44.1°F6.7°C 42.7°F5.9°C 95% Calm Calm -- 30.15 in1021.0 mb 0.00 in0.0 mm 0.00 in0.0 mm 0.00 in0.0 mm
04:45 AM 44.1°F6.7°C 42.7°F5.9°C 95% Calm Calm -- 30.15 in1021.0 mb 0.00 in0.0 mm 0.00 in0.0 mm 0.00 in0.0 mm
04:50 AM 44.1°F6.7°C 42.7°F5.9°C 95% Calm Calm -- 30.15 in1021.0 mb 0.00 in0.0 mm 0.00 in0.0 mm 0.00 in0.0 mm
04:55 AM 44.1°F6.7°C 42.7°F5.9°C 95% Calm Calm -- 30.15 in1021.0 mb 0.00 in0.0 mm 0.00 in0.0 mm 0.00 in0.0 mm
05:00 AM 44.1°F6.7°C 42.7°F5.9°C 95% Calm Calm -- 30.15 in1021.0 mb 0.00 in0.0 mm 0.00 in0.0 mm 0.00 in0.0 mm
05:05 AM 44.2°F6.8°C 42.9°F6.1°C 95% Calm Calm -- 30.15 in1021.0 mb 0.00 in0.0 mm 0.00 in0.0 mm 0.00 in0.0 mm
05:10 AM 44.2°F6.8°C 42.9°F6.1°C 95% Calm Calm -- 30.15 in1021.0 mb 0.00 in0.0 mm 0.00 in0.0 mm 0.00 in0.0 mm
05:15 AM 44.2°F6.8°C 42.9°F6.1°C 95% Calm Calm -- 30.15 in1021.0 mb 0.00 in0.0 mm 0.00 in0.0 mm 0.00 in0.0 mm
05:20 AM 44.2°F6.8°C 42.9°F6.1°C 95% Calm Calm -- 30.15 in1021.0 mb 0.00 in0.0 mm 0.00 in0.0 mm 0.00 in0.0 mm
05:25 AM 44.2°F6.8°C 42.9°F6.1°C 95% Calm Calm -- 30.15 in1021.0 mb 0.00 in0.0 mm 0.00 in0.0 mm 0.00 in0.0 mm
05:30 AM 44.2°F6.8°C 42.9°F6.1°C 95% Calm Calm -- 30.15 in1021.0 mb 0.00 in0.0 mm 0.00 in0.0 mm 0.00 in0.0 mm
05:35 AM 44.2°F6.8°C 42.9°F6.1°C 95% Calm Calm -- 30.15 in1021.0 mb 0.00 in0.0 mm 0.00 in0.0 mm 0.00 in0.0 mm
05:40 AM 44.1°F6.7°C 42.7°F5.9°C 95% Calm Calm -- 30.15 in1021.0 mb 0.00 in0.0 mm 0.00 in0.0 mm 0.00 in0.0 mm
05:45 AM 44.1°F6.7°C 42.7°F5.9°C 95% Calm Calm -- 30.15 in1021.0 mb 0.00 in0.0 mm 0.00 in0.0 mm 0.00 in0.0 mm
05:50 AM 44.1°F6.7°C 42.7°F5.9°C 95% Calm Calm -- 30.15 in1021.0 mb 0.00 in0.0 mm 0.00 in0.0 mm 0.00 in0.0 mm
05:55 AM 44.1°F6.7°C 42.7°F5.9°C 95% Calm Calm -- 30.15 in1021.0 mb 0.00 in0.0 mm 0.00 in0.0 mm 0.00 in0.0 mm
06:00 AM 44.1°F6.7°C 42.7°F5.9°C 95% Calm Calm -- 30.15 in1021.0 mb 0.00 in0.0 mm 0.00 in0.0 mm 0.00 in0.0 mm
06:05 AM 44.2°F6.8°C 42.9°F6.1°C 95% Calm Calm -- 30.15 in1021.0 mb 0.00 in0.0 mm 0.00 in0.0 mm 0.00 in0.0 mm
06:10 AM 44.2°F6.8°C 42.9°F6.1°C 95% Calm Calm -- 30.15 in1021.0 mb 0.00 in0.0 mm 0.00 in0.0 mm 0.00 in0.0 mm
06:15 AM 44.2°F6.8°C 42.9°F6.1°C 95% Calm Calm -- 30.15 in1021.0 mb 0.00 in0.0 mm 0.00 in0.0 mm 0.00 in0.0 mm
06:20 AM 44.4°F6.9°C 43.1°F6.2°C 95% Calm Calm -- 30.15 in1021.0 mb 0.00 in0.0 mm 0.00 in0.0 mm 0.00 in0.0 mm
06:25 AM 44.4°F6.9°C 43.1°F6.2°C 95% Calm Calm -- 30.15 in1021.0 mb 0.00 in0.0 mm 0.00 in0.0 mm 0.00 in0.0 mm
06:30 AM 44.4°F6.9°C 43.1°F6.2°C 95% Calm Calm -- 30.15 in1021.0 mb 0.00 in0.0 mm 0.00 in0.0 mm 0.00 in0.0 mm
06:35 AM 44.6°F7.0°C 43.3°F6.3°C 95% Calm Calm -- 30.15 in1021.0 mb 0.00 in0.0 mm 0.00 in0.0 mm 0.00 in0.0 mm
06:40 AM 44.8°F7.1°C 43.4°F6.3°C 95% Calm Calm -- 30.15 in1021.0 mb 0.00 in0.0 mm 0.00 in0.0 mm 0.00 in0.0 mm
06:45 AM 45.0°F7.2°C 43.6°F6.4°C 95% Calm Calm -- 30.15 in1021.0 mb 0.00 in0.0 mm 0.00 in0.0 mm 0.00 in0.0 mm
06:50 AM 45.1°F7.3°C 43.8°F6.6°C 95% Calm Calm -- 30.15 in1021.0 mb 0.00 in0.0 mm 0.00 in0.0 mm 0.00 in0.0 mm
06:55 AM 45.3°F7.4°C 44.0°F6.7°C 95% Calm Calm -- 30.15 in1021.0 mb 0.00 in0.0 mm 0.00 in0.0 mm 0.00 in0.0 mm
07:00 AM 45.7°F7.6°C 44.3°F6.8°C 95% Calm Calm -- 30.15 in1021.0 mb 0.00 in0.0 mm 0.00 in0.0 mm 0.00 in0.0 mm
07:05 AM 46.0°F7.8°C 44.7°F7.1°C 95% Calm Calm -- 30.15 in1021.0 mb 0.00 in0.0 mm 0.00 in0.0 mm 0.00 in0.0 mm
07:10 AM 46.2°F7.9°C 44.9°F7.2°C 95% Calm Calm -- 30.15 in1021.0 mb 0.00 in0.0 mm 0.00 in0.0 mm 0.00 in0.0 mm
07:15 AM 46.6°F8.1°C 45.2°F7.3°C 95% Calm Calm -- 30.15 in1021.0 mb 0.00 in0.0 mm 0.00 in0.0 mm 0.00 in0.0 mm
07:20 AM 46.8°F8.2°C 45.1°F7.3°C 94% Calm Calm -- 30.15 in1021.0 mb 0.00 in0.0 mm 0.00 in0.0 mm 0.00 in0.0 mm
07:25 AM 46.9°F8.3°C 45.6°F7.6°C 95% Calm Calm -- 30.15 in1021.0 mb 0.00 in0.0 mm 0.00 in0.0 mm 0.00 in0.0 mm
07:30 AM 47.3°F8.5°C 45.7°F7.6°C 94% Calm Calm -- 30.15 in1021.0 mb 0.00 in0.0 mm 0.00 in0.0 mm 0.00 in0.0 mm
07:35 AM 47.7°F8.7°C 46.0°F7.8°C 94% Calm Calm -- 30.15 in1021.0 mb 0.00 in0.0 mm 0.00 in0.0 mm 0.00 in0.0 mm
07:40 AM 48.2°F9.0°C 46.6°F8.1°C 94% Calm Calm -- 30.15 in1021.0 mb 0.00 in0.0 mm 0.00 in0.0 mm 0.00 in0.0 mm
07:45 AM 48.6°F9.2°C 46.9°F8.3°C 94% Calm Calm -- 30.15 in1021.0 mb 0.00 in0.0 mm 0.00 in0.0 mm 0.00 in0.0 mm
07:50 AM 48.9°F9.4°C 47.3°F8.5°C 94% Calm Calm -- 30.15 in1021.0 mb 0.00 in0.0 mm 0.00 in0.0 mm 0.00 in0.0 mm
07:55 AM 49.1°F9.5°C 47.4°F8.6°C 94% Calm Calm -- 30.18 in1022.0 mb 0.00 in0.0 mm 0.00 in0.0 mm 0.00 in0.0 mm
08:00 AM 49.3°F9.6°C 47.6°F8.7°C 94% Calm Calm -- 30.18 in1022.0 mb 0.00 in0.0 mm 0.00 in0.0 mm 0.00 in0.0 mm
08:05 AM 49.5°F9.7°C 47.8°F8.8°C 94% Calm Calm -- 30.18 in1022.0 mb 0.00 in0.0 mm 0.00 in0.0 mm 0.00 in0.0 mm
08:10 AM 49.8°F9.9°C 48.2°F9.0°C 94% Calm Calm -- 30.18 in1022.0 mb 0.00 in0.0 mm 0.00 in0.0 mm 0.00 in0.0 mm
08:15 AM 50.0°F10.0°C 48.1°F8.9°C 93% Calm Calm -- 30.18 in1022.0 mb 0.00 in0.0 mm 0.00 in0.0 mm 0.00 in0.0 mm
08:20 AM 50.2°F10.1°C 48.2°F9.0°C 93% Calm Calm -- 30.18 in1022.0 mb 0.00 in0.0 mm 0.00 in0.0 mm 0.00 in0.0 mm
08:25 AM 50.2°F10.1°C 48.2°F9.0°C 93% Calm Calm -- 30.18 in1022.0 mb 0.00 in0.0 mm 0.00 in0.0 mm 0.00 in0.0 mm
08:30 AM 50.5°F10.3°C 48.6°F9.2°C 93% Calm Calm -- 30.18 in1022.0 mb 0.00 in0.0 mm 0.00 in0.0 mm 0.00 in0.0 mm
08:35 AM 50.7°F10.4°C 48.8°F9.3°C 93% Calm Calm -- 30.18 in1022.0 mb 0.00 in0.0 mm 0.00 in0.0 mm 0.00 in0.0 mm
08:40 AM 51.1°F10.6°C 49.1°F9.5°C 93% Calm Calm -- 30.18 in1022.0 mb 0.00 in0.0 mm 0.00 in0.0 mm 0.00 in0.0 mm
08:45 AM 51.4°F10.8°C 49.5°F9.7°C 93% Calm Calm -- 30.18 in1022.0 mb 0.00 in0.0 mm 0.00 in0.0 mm 0.00 in0.0 mm
08:50 AM 51.8°F11.0°C 49.8°F9.9°C 93% Calm Calm -- 30.18 in1022.0 mb 0.00 in0.0 mm 0.00 in0.0 mm 0.00 in0.0 mm
08:55 AM 52.0°F11.1°C 50.0°F10.0°C 93% Calm Calm -- 30.18 in1022.0 mb 0.00 in0.0 mm 0.00 in0.0 mm 0.00 in0.0 mm
09:00 AM 52.3°F11.3°C 50.4°F10.2°C 93% Calm Calm -- 30.18 in1022.0 mb 0.00 in0.0 mm 0.00 in0.0 mm 0.00 in0.0 mm
09:05 AM 52.7°F11.5°C 50.7°F10.4°C 93% Calm Calm -- 30.18 in1022.0 mb 0.00 in0.0 mm 0.00 in0.0 mm 0.00 in0.0 mm
09:10 AM 52.9°F11.6°C 50.9°F10.5°C 93% Calm Calm -- 30.18 in1022.0 mb 0.00 in0.0 mm 0.00 in0.0 mm 0.00 in0.0 mm
09:15 AM 53.1°F11.7°C 50.8°F10.4°C 92% Calm Calm -- 30.18 in1022.0 mb 0.00 in0.0 mm 0.00 in0.0 mm 0.00 in0.0 mm
09:20 AM 53.2°F11.8°C 51.0°F10.6°C 92% Calm Calm -- 30.18 in1022.0 mb 0.00 in0.0 mm 0.00 in0.0 mm 0.00 in0.0 mm
09:25 AM 53.8°F12.1°C 51.5°F10.8°C 92% Calm Calm -- 30.18 in1022.0 mb 0.00 in0.0 mm 0.00 in0.0 mm 0.00 in0.0 mm
09:30 AM 54.3°F12.4°C 52.0°F11.1°C 92% Calm Calm -- 30.18 in1022.0 mb 0.00 in0.0 mm 0.00 in0.0 mm 0.00 in0.0 mm
09:35 AM 54.7°F12.6°C 52.4°F11.3°C 92% Calm Calm -- 30.18 in1022.0 mb 0.00 in0.0 mm 0.00 in0.0 mm 0.00 in0.0 mm
09:40 AM 55.0°F12.8°C 52.8°F11.6°C 92% Calm Calm -- 30.18 in1022.0 mb 0.00 in0.0 mm 0.00 in0.0 mm 0.00 in0.0 mm
09:45 AM 55.2°F12.9°C 52.6°F11.4°C 91% Calm Calm -- 30.18 in1022.0 mb 0.00 in0.0 mm 0.00 in0.0 mm 0.00 in0.0 mm
09:50 AM 55.6°F13.1°C 52.7°F11.5°C 90% 1.1 mph S1.8 kmh S 1.1 mph1.8 kmh 30.18 in1022.0 mb 0.00 in0.0 mm 0.00 in0.0 mm 0.00 in0.0 mm
09:55 AM 55.9°F13.3°C 53.0°F11.7°C 90% 4.4 mph SSW7.1 kmh SSW 4.4 mph7.1 kmh 30.18 in1022.0 mb 0.00 in0.0 mm 0.00 in0.0 mm 0.00 in0.0 mm
10:00 AM 56.1°F13.4°C 53.2°F11.8°C 90% 4.1 mph SW6.6 kmh SW 4.4 mph7.1 kmh 30.18 in1022.0 mb 0.00 in0.0 mm 0.00 in0.0 mm 0.00 in0.0 mm
10:05 AM 56.5°F13.6°C 53.3°F11.8°C 89% 6.8 mph SW10.9 kmh SW 6.8 mph10.9 kmh 30.18 in1022.0 mb 0.00 in0.0 mm 0.00 in0.0 mm 0.00 in0.0 mm
10:10 AM 56.7°F13.7°C 53.5°F11.9°C 89% 3.3 mph SW5.3 kmh SW 6.8 mph10.9 kmh 30.18 in1022.0 mb 0.00 in0.0 mm 0.00 in0.0 mm 0.00 in0.0 mm
10:15 AM 56.8°F13.8°C 53.3°F11.8°C 88% 7.9 mph SSW12.7 kmh SSW 7.9 mph12.7 kmh 30.18 in1022.0 mb 0.00 in0.0 mm 0.00 in0.0 mm 0.00 in0.0 mm
10:20 AM 57.0°F13.9°C 53.5°F11.9°C 88% 6.8 mph SW10.9 kmh SW 7.9 mph12.7 kmh 30.18 in1022.0 mb 0.00 in0.0 mm 0.00 in0.0 mm 0.00 in0.0 mm
10:25 AM 57.0°F13.9°C 53.5°F11.9°C 88% 3.8 mph SW6.1 kmh SW 6.8 mph10.9 kmh 30.18 in1022.0 mb 0.00 in0.0 mm 0.00 in0.0 mm 0.00 in0.0 mm
10:30 AM 57.2°F14.0°C 53.0°F11.7°C 86% 2.7 mph SW4.3 kmh SW 7.9 mph12.7 kmh 30.18 in1022.0 mb 0.00 in0.0 mm 0.00 in0.0 mm 0.00 in0.0 mm
10:35 AM 57.2°F14.0°C 53.0°F11.7°C 86% 4.4 mph SW7.1 kmh SW 7.9 mph12.7 kmh 30.18 in1022.0 mb 0.00 in0.0 mm 0.00 in0.0 mm 0.00 in0.0 mm
10:40 AM 57.2°F14.0°C 53.0°F11.7°C 86% 3.8 mph SW6.1 kmh SW 4.6 mph7.4 kmh 30.18 in1022.0 mb 0.00 in0.0 mm 0.00 in0.0 mm 0.00 in0.0 mm
10:45 AM 57.4°F14.1°C 53.2°F11.8°C 86% 3.8 mph SSW6.1 kmh SSW 6.0 mph9.7 kmh 30.18 in1022.0 mb 0.00 in0.0 mm 0.00 in0.0 mm 0.00 in0.0 mm
10:50 AM 57.6°F14.2°C 53.4°F11.9°C 86% 4.6 mph SSW7.4 kmh SSW 6.0 mph9.7 kmh 30.18 in1022.0 mb 0.00 in0.0 mm 0.00 in0.0 mm 0.00 in0.0 mm
10:55 AM 57.6°F14.2°C 53.4°F11.9°C 86% 3.5 mph SW5.6 kmh SW 4.9 mph7.9 kmh 30.18 in1022.0 mb 0.00 in0.0 mm 0.00 in0.0 mm 0.00 in0.0 mm
11:00 AM 57.7°F14.3°C 53.3°F11.8°C 85% 1.1 mph SW1.8 kmh SW 9.3 mph15.0 kmh 30.18 in1022.0 mb 0.00 in0.0 mm 0.00 in0.0 mm 0.00 in0.0 mm
11:05 AM 57.9°F14.4°C 53.4°F11.9°C 85% 1.9 mph S3.1 kmh S 9.3 mph15.0 kmh 30.18 in1022.0 mb 0.00 in0.0 mm 0.00 in0.0 mm 0.00 in0.0 mm
11:10 AM 58.1°F14.5°C 53.6°F12.0°C 85% 6.5 mph S10.5 kmh S 6.5 mph10.5 kmh 30.18 in1022.0 mb 0.00 in0.0 mm 0.00 in0.0 mm 0.00 in0.0 mm
11:15 AM 58.3°F14.6°C 53.8°F12.1°C 85% 5.5 mph S8.9 kmh S 6.5 mph10.5 kmh 30.18 in1022.0 mb 0.00 in0.0 mm 0.00 in0.0 mm 0.00 in0.0 mm
11:20 AM 58.5°F14.7°C 54.0°F12.2°C 85% 4.9 mph SSW7.9 kmh SSW 6.5 mph10.5 kmh 30.18 in1022.0 mb 0.00 in0.0 mm 0.00 in0.0 mm 0.00 in0.0 mm
11:25 AM 58.6°F14.8°C 54.1°F12.3°C 85% 1.1 mph SW1.8 kmh SW 6.5 mph10.5 kmh 30.18 in1022.0 mb 0.00 in0.0 mm 0.00 in0.0 mm 0.00 in0.0 mm
11:30 AM 59.0°F15.0°C 54.2°F12.3°C 84% 1.6 mph SW2.6 kmh SW 7.6 mph12.2 kmh 30.18 in1022.0 mb 0.00 in0.0 mm 0.00 in0.0 mm 0.00 in0.0 mm
11:35 AM 59.5°F15.3°C 54.7°F12.6°C 84% 3.5 mph SSW5.6 kmh SSW 7.6 mph12.2 kmh 30.18 in1022.0 mb 0.00 in0.0 mm 0.00 in0.0 mm 0.00 in0.0 mm
11:40 AM 59.7°F15.4°C 54.9°F12.7°C 84% 3.5 mph SSW5.6 kmh SSW 7.4 mph11.9 kmh 30.18 in1022.0 mb 0.00 in0.0 mm 0.00 in0.0 mm 0.00 in0.0 mm
11:45 AM 60.1°F15.6°C 55.2°F12.9°C 84% 5.2 mph SW8.4 kmh SW 7.4 mph11.9 kmh 30.18 in1022.0 mb 0.00 in0.0 mm 0.00 in0.0 mm 0.00 in0.0 mm
11:50 AM 60.3°F15.7°C 55.4°F13.0°C 84% 4.1 mph SW6.6 kmh SW 6.5 mph10.5 kmh 30.18 in1022.0 mb 0.00 in0.0 mm 0.00 in0.0 mm 0.00 in0.0 mm
11:55 AM 60.6°F15.9°C 55.4°F13.0°C 83% 7.4 mph SW11.9 kmh SW 7.4 mph11.9 kmh 30.18 in1022.0 mb 0.00 in0.0 mm 0.00 in0.0 mm 0.00 in0.0 mm
12:00 PM 60.8°F16.0°C 55.3°F12.9°C 82% 5.5 mph SW8.9 kmh SW 7.6 mph12.2 kmh 30.18 in1022.0 mb 0.00 in0.0 mm 0.00 in0.0 mm 0.00 in0.0 mm
12:05 PM 61.0°F16.1°C 55.4°F13.0°C 82% 3.8 mph SW6.1 kmh SW 8.5 mph13.7 kmh 30.18 in1022.0 mb 0.00 in0.0 mm 0.00 in0.0 mm 0.00 in0.0 mm
12:10 PM 61.0°F16.1°C 55.4°F13.0°C 82% 3.8 mph SW6.1 kmh SW 8.5 mph13.7 kmh 30.15 in1021.0 mb 0.00 in0.0 mm 0.00 in0.0 mm 0.00 in0.0 mm
12:15 PM 61.2°F16.2°C 55.3°F12.9°C 81% 7.4 mph SSW11.9 kmh SSW 7.6 mph12.2 kmh 30.15 in1021.0 mb 0.00 in0.0 mm 0.00 in0.0 mm 0.00 in0.0 mm
12:20 PM 61.2°F16.2°C 54.9°F12.7°C 80% 1.6 mph SW2.6 kmh SW 7.4 mph11.9 kmh 30.15 in1021.0 mb 0.00 in0.0 mm 0.00 in0.0 mm 0.00 in0.0 mm
12:25 PM 61.0°F16.1°C 54.8°F12.7°C 80% 4.1 mph SW6.6 kmh SW 7.9 mph12.7 kmh 30.15 in1021.0 mb 0.00 in0.0 mm 0.00 in0.0 mm 0.00 in0.0 mm
12:30 PM 61.0°F16.1°C 55.1°F12.8°C 81% 3.8 mph SW6.1 kmh SW 7.9 mph12.7 kmh 30.15 in1021.0 mb 0.00 in0.0 mm 0.00 in0.0 mm 0.00 in0.0 mm
12:35 PM 61.0°F16.1°C 54.8°F12.7°C 80% 2.5 mph SSW4.0 kmh SSW 7.9 mph12.7 kmh 30.15 in1021.0 mb 0.00 in0.0 mm 0.00 in0.0 mm 0.00 in0.0 mm
12:40 PM 61.2°F16.2°C 54.9°F12.7°C 80% 3.5 mph S5.6 kmh S 7.9 mph12.7 kmh 30.15 in1021.0 mb 0.00 in0.0 mm 0.00 in0.0 mm 0.00 in0.0 mm
12:45 PM 61.2°F16.2°C 54.9°F12.7°C 80% 2.5 mph SSW4.0 kmh SSW 4.1 mph6.6 kmh 30.15 in1021.0 mb 0.00 in0.0 mm 0.00 in0.0 mm 0.00 in0.0 mm
12:50 PM 61.3°F16.3°C 54.8°F12.7°C 79% 4.4 mph SW7.1 kmh SW 4.4 mph7.1 kmh 30.15 in1021.0 mb 0.00 in0.0 mm 0.00 in0.0 mm 0.00 in0.0 mm
12:55 PM 61.3°F16.3°C 54.8°F12.7°C 79% 4.4 mph SW7.1 kmh SW 7.4 mph11.9 kmh 30.15 in1021.0 mb 0.00 in0.0 mm 0.00 in0.0 mm 0.00 in0.0 mm
01:00 PM 61.0°F16.1°C 54.4°F12.4°C 79% 3.3 mph S5.3 kmh S 7.4 mph11.9 kmh 30.15 in1021.0 mb 0.00 in0.0 mm 0.00 in0.0 mm 0.00 in0.0 mm
01:05 PM 61.0°F16.1°C 54.1°F12.3°C 78% 4.1 mph SSW6.6 kmh SSW 8.5 mph13.7 kmh 30.15 in1021.0 mb 0.00 in0.0 mm 0.00 in0.0 mm 0.00 in0.0 mm
01:10 PM 60.8°F16.0°C 53.9°F12.2°C 78% 12.3 mph SSW19.8 kmh SSW 12.3 mph19.8 kmh 30.12 in1020.0 mb 0.00 in0.0 mm 0.00 in0.0 mm 0.00 in0.0 mm
01:15 PM 60.8°F16.0°C 53.9°F12.2°C 78% 1.1 mph SW1.8 kmh SW 12.3 mph19.8 kmh 30.12 in1020.0 mb 0.00 in0.0 mm 0.00 in0.0 mm 0.00 in0.0 mm
01:20 PM 60.8°F16.0°C 54.2°F12.3°C 79% 3.8 mph SW6.1 kmh SW 12.3 mph19.8 kmh 30.12 in1020.0 mb 0.00 in0.0 mm 0.00 in0.0 mm 0.00 in0.0 mm
01:25 PM 61.0°F16.1°C 54.1°F12.3°C 78% 4.9 mph SSW7.9 kmh SSW 7.9 mph12.7 kmh 30.15 in1021.0 mb 0.00 in0.0 mm 0.00 in0.0 mm 0.00 in0.0 mm
01:30 PM 61.0°F16.1°C 54.1°F12.3°C 78% 5.2 mph S8.4 kmh S 5.7 mph9.2 kmh 30.15 in1021.0 mb 0.00 in0.0 mm 0.00 in0.0 mm 0.00 in0.0 mm
01:35 PM 61.2°F16.2°C 54.2°F12.3°C 78% 10.9 mph SSW17.5 kmh SSW 10.9 mph17.5 kmh 30.15 in1021.0 mb 0.00 in0.0 mm 0.00 in0.0 mm 0.00 in0.0 mm
01:40 PM 61.0°F16.1°C 54.1°F12.3°C 78% 3.3 mph SSW5.3 kmh SSW 10.9 mph17.5 kmh 30.15 in1021.0 mb 0.00 in0.0 mm 0.00 in0.0 mm 0.00 in0.0 mm
01:45 PM 60.6°F15.9°C 53.7°F12.1°C 78% 1.6 mph SSW2.6 kmh SSW 6.5 mph10.5 kmh 30.15 in1021.0 mb 0.00 in0.0 mm 0.00 in0.0 mm 0.00 in0.0 mm
01:50 PM 60.6°F15.9°C 53.7°F12.1°C 78% 4.9 mph SW7.9 kmh SW 8.2 mph13.2 kmh 30.15 in1021.0 mb 0.00 in0.0 mm 0.00 in0.0 mm 0.00 in0.0 mm
01:55 PM 60.6°F15.9°C 53.7°F12.1°C 78% 4.9 mph WSW7.9 kmh WSW 8.2 mph13.2 kmh 30.15 in1021.0 mb 0.00 in0.0 mm 0.00 in0.0 mm 0.00 in0.0 mm
02:00 PM 60.6°F15.9°C 53.4°F11.9°C 77% 2.5 mph WSW4.0 kmh WSW 6.5 mph10.5 kmh 30.15 in1021.0 mb 0.00 in0.0 mm 0.00 in0.0 mm 0.00 in0.0 mm
02:05 PM 60.6°F15.9°C 53.7°F12.1°C 78% Calm Calm 5.2 mph8.4 kmh 30.15 in1021.0 mb 0.00 in0.0 mm 0.00 in0.0 mm 0.00 in0.0 mm
02:10 PM 60.6°F15.9°C 53.4°F11.9°C 77% 7.4 mph SW11.9 kmh SW 7.4 mph11.9 kmh 30.15 in1021.0 mb 0.00 in0.0 mm 0.00 in0.0 mm 0.00 in0.0 mm
02:15 PM 60.6°F15.9°C 53.4°F11.9°C 77% 1.1 mph SSW1.8 kmh SSW 7.4 mph11.9 kmh 30.15 in1021.0 mb 0.00 in0.0 mm 0.00 in0.0 mm 0.00 in0.0 mm
02:20 PM 60.6°F15.9°C 53.4°F11.9°C 77% 4.4 mph S7.1 kmh S 9.0 mph14.5 kmh 30.15 in1021.0 mb 0.00 in0.0 mm 0.00 in0.0 mm 0.00 in0.0 mm
02:25 PM 60.4°F15.8°C 53.2°F11.8°C 77% 6.0 mph SSW9.7 kmh SSW 9.0 mph14.5 kmh 30.15 in1021.0 mb 0.00 in0.0 mm 0.00 in0.0 mm 0.00 in0.0 mm
02:30 PM 60.4°F15.8°C 52.8°F11.6°C 76% 6.0 mph SSW9.7 kmh SSW 7.6 mph12.2 kmh 30.15 in1021.0 mb 0.00 in0.0 mm 0.00 in0.0 mm 0.00 in0.0 mm
02:35 PM 60.3°F15.7°C 52.7°F11.5°C 76% 4.6 mph S7.4 kmh S 7.6 mph12.2 kmh 30.15 in1021.0 mb 0.00 in0.0 mm 0.00 in0.0 mm 0.00 in0.0 mm
02:40 PM 60.3°F15.7°C 52.7°F11.5°C 76% 1.6 mph SSW2.6 kmh SSW 6.0 mph9.7 kmh 30.12 in1020.0 mb 0.00 in0.0 mm 0.00 in0.0 mm 0.00 in0.0 mm
02:45 PM 60.3°F15.7°C 53.0°F11.7°C 77% 5.2 mph SSW8.4 kmh SSW 7.4 mph11.9 kmh 30.12 in1020.0 mb 0.00 in0.0 mm 0.00 in0.0 mm 0.00 in0.0 mm
02:50 PM 60.1°F15.6°C 52.5°F11.4°C 76% 4.4 mph S7.1 kmh S 10.6 mph17.1 kmh 30.12 in1020.0 mb 0.00 in0.0 mm 0.00 in0.0 mm 0.00 in0.0 mm
02:55 PM 59.9°F15.5°C 52.3°F11.3°C 76% 3.0 mph S4.8 kmh S 10.6 mph17.1 kmh 30.12 in1020.0 mb 0.00 in0.0 mm 0.00 in0.0 mm 0.00 in0.0 mm
03:00 PM 60.1°F15.6°C 52.5°F11.4°C 76% 4.9 mph SW7.9 kmh SW 7.9 mph12.7 kmh 30.12 in1020.0 mb 0.00 in0.0 mm 0.00 in0.0 mm 0.00 in0.0 mm
03:05 PM 60.1°F15.6°C 52.5°F11.4°C 76% 4.4 mph WSW7.1 kmh WSW 7.9 mph12.7 kmh 30.12 in1020.0 mb 0.00 in0.0 mm 0.00 in0.0 mm 0.00 in0.0 mm
03:10 PM 59.7°F15.4°C 51.8°F11.0°C 75% 10.6 mph SW17.1 kmh SW 10.6 mph17.1 kmh 30.12 in1020.0 mb 0.00 in0.0 mm 0.00 in0.0 mm 0.00 in0.0 mm
03:15 PM 59.9°F15.5°C 52.0°F11.1°C 75% 7.1 mph SSW11.4 kmh SSW 11.7 mph18.8 kmh 30.12 in1020.0 mb 0.00 in0.0 mm 0.00 in0.0 mm 0.00 in0.0 mm
03:20 PM 59.9°F15.5°C 52.0°F11.1°C 75% 3.3 mph SW5.3 kmh SW 11.7 mph18.8 kmh 30.12 in1020.0 mb 0.00 in0.0 mm 0.00 in0.0 mm 0.00 in0.0 mm
03:25 PM 59.7°F15.4°C 51.8°F11.0°C 75% 4.4 mph SW7.1 kmh SW 7.9 mph12.7 kmh 30.12 in1020.0 mb 0.00 in0.0 mm 0.00 in0.0 mm 0.00 in0.0 mm
03:30 PM 59.5°F15.3°C 51.6°F10.9°C 75% 9.8 mph SSW15.8 kmh SSW 9.8 mph15.8 kmh 30.12 in1020.0 mb 0.00 in0.0 mm 0.00 in0.0 mm 0.00 in0.0 mm
03:35 PM 59.4°F15.2°C 51.4°F10.8°C 75% 4.1 mph SW6.6 kmh SW 9.8 mph15.8 kmh 30.12 in1020.0 mb 0.00 in0.0 mm 0.00 in0.0 mm 0.00 in0.0 mm
03:40 PM 59.4°F15.2°C 51.4°F10.8°C 75% 1.9 mph SSW3.1 kmh SSW 8.7 mph14.0 kmh 30.12 in1020.0 mb 0.00 in0.0 mm 0.00 in0.0 mm 0.00 in0.0 mm
03:45 PM 59.4°F15.2°C 51.4°F10.8°C 75% 1.1 mph SW1.8 kmh SW 7.9 mph12.7 kmh 30.12 in1020.0 mb 0.00 in0.0 mm 0.00 in0.0 mm 0.00 in0.0 mm
03:50 PM 59.2°F15.1°C 51.3°F10.7°C 75% 2.5 mph SW4.0 kmh SW 8.7 mph14.0 kmh 30.12 in1020.0 mb 0.00 in0.0 mm 0.00 in0.0 mm 0.00 in0.0 mm
03:55 PM 59.2°F15.1°C 51.3°F10.7°C 75% 3.0 mph SW4.8 kmh SW 8.7 mph14.0 kmh 30.12 in1020.0 mb 0.00 in0.0 mm 0.00 in0.0 mm 0.00 in0.0 mm
04:00 PM 59.2°F15.1°C 51.6°F10.9°C 76% 6.5 mph SW10.5 kmh SW 6.5 mph10.5 kmh 30.12 in1020.0 mb 0.00 in0.0 mm 0.00 in0.0 mm 0.00 in0.0 mm
04:05 PM 59.0°F15.0°C 51.1°F10.6°C 75% 4.4 mph SSW7.1 kmh SSW 6.8 mph10.9 kmh 30.12 in1020.0 mb 0.00 in0.0 mm 0.00 in0.0 mm 0.00 in0.0 mm
04:10 PM 58.8°F14.9°C 50.9°F10.5°C 75% 1.6 mph SSW2.6 kmh SSW 6.8 mph10.9 kmh 30.12 in1020.0 mb 0.00 in0.0 mm 0.00 in0.0 mm 0.00 in0.0 mm
04:15 PM 58.8°F14.9°C 51.3°F10.7°C 76% 5.7 mph SW9.2 kmh SW 7.6 mph12.2 kmh 30.12 in1020.0 mb 0.00 in0.0 mm 0.00 in0.0 mm 0.00 in0.0 mm
04:20 PM 58.6°F14.8°C 50.7°F10.4°C 75% 1.4 mph SW2.3 kmh SW 7.6 mph12.2 kmh 30.12 in1020.0 mb 0.00 in0.0 mm 0.00 in0.0 mm 0.00 in0.0 mm
04:25 PM 58.5°F14.7°C 50.9°F10.5°C 76% 5.2 mph SW8.4 kmh SW 5.7 mph9.2 kmh 30.12 in1020.0 mb 0.00 in0.0 mm 0.00 in0.0 mm 0.00 in0.0 mm
04:30 PM 58.3°F14.6°C 50.4°F10.2°C 75% 1.1 mph S1.8 kmh S 5.7 mph9.2 kmh 30.12 in1020.0 mb 0.00 in0.0 mm 0.00 in0.0 mm 0.00 in0.0 mm
04:35 PM 58.1°F14.5°C 50.6°F10.3°C 76% 3.3 mph SSW5.3 kmh SSW 5.7 mph9.2 kmh 30.12 in1020.0 mb 0.00 in0.0 mm 0.00 in0.0 mm 0.00 in0.0 mm
04:40 PM 57.9°F14.4°C 50.4°F10.2°C 76% 2.7 mph SW4.3 kmh SW 7.1 mph11.4 kmh 30.12 in1020.0 mb 0.00 in0.0 mm 0.00 in0.0 mm 0.00 in0.0 mm
04:45 PM 57.7°F14.3°C 50.6°F10.3°C 77% 6.8 mph SSW10.9 kmh SSW 7.1 mph11.4 kmh 30.12 in1020.0 mb 0.00 in0.0 mm 0.00 in0.0 mm 0.00 in0.0 mm
04:50 PM 57.7°F14.3°C 50.2°F10.1°C 76% 3.5 mph SSW5.6 kmh SSW 6.8 mph10.9 kmh 30.12 in1020.0 mb 0.00 in0.0 mm 0.00 in0.0 mm 0.00 in0.0 mm
04:55 PM 57.6°F14.2°C 50.0°F10.0°C 76% 4.1 mph SW6.6 kmh SW 6.8 mph10.9 kmh 30.12 in1020.0 mb 0.00 in0.0 mm 0.00 in0.0 mm 0.00 in0.0 mm
05:00 PM 57.4°F14.1°C 50.2°F10.1°C 77% 1.1 mph SW1.8 kmh SW 4.1 mph6.6 kmh 30.12 in1020.0 mb 0.00 in0.0 mm 0.00 in0.0 mm 0.00 in0.0 mm
05:05 PM 57.2°F14.0°C 50.1°F10.1°C 77% Calm Calm 3.5 mph5.6 kmh 30.12 in1020.0 mb 0.00 in0.0 mm 0.00 in0.0 mm 0.00 in0.0 mm
05:10 PM 57.0°F13.9°C 50.2°F10.1°C 78% Calm Calm 1.6 mph2.6 kmh 30.12 in1020.0 mb 0.00 in0.0 mm 0.00 in0.0 mm 0.00 in0.0 mm
05:15 PM 56.8°F13.8°C 50.1°F10.1°C 78% 1.6 mph SW2.6 kmh SW 1.6 mph2.6 kmh 30.12 in1020.0 mb 0.00 in0.0 mm 0.00 in0.0 mm 0.00 in0.0 mm
05:20 PM 56.8°F13.8°C 50.1°F10.1°C 78% 1.6 mph SSW2.6 kmh SSW 3.5 mph5.6 kmh 30.12 in1020.0 mb 0.00 in0.0 mm 0.00 in0.0 mm 0.00 in0.0 mm
05:25 PM 56.7°F13.7°C 49.9°F9.9°C 78% 1.9 mph SW3.1 kmh SW 3.5 mph5.6 kmh 30.12 in1020.0 mb 0.00 in0.0 mm 0.00 in0.0 mm 0.00 in0.0 mm
05:30 PM 56.7°F13.7°C 49.9°F9.9°C 78% 1.1 mph SW1.8 kmh SW 4.6 mph7.4 kmh 30.12 in1020.0 mb 0.00 in0.0 mm 0.00 in0.0 mm 0.00 in0.0 mm
05:35 PM 56.3°F13.5°C 49.5°F9.7°C 78% 1.6 mph SW2.6 kmh SW 4.6 mph7.4 kmh 30.12 in1020.0 mb 0.00 in0.0 mm 0.00 in0.0 mm 0.00 in0.0 mm
05:40 PM 56.1°F13.4°C 49.4°F9.7°C 78% 3.3 mph SW5.3 kmh SW 3.3 mph5.3 kmh 30.12 in1020.0 mb 0.00 in0.0 mm 0.00 in0.0 mm 0.00 in0.0 mm
05:45 PM 55.9°F13.3°C 49.5°F9.7°C 79% 1.9 mph SW3.1 kmh SW 3.3 mph5.3 kmh 30.12 in1020.0 mb 0.00 in0.0 mm 0.00 in0.0 mm 0.00 in0.0 mm
05:50 PM 55.8°F13.2°C 49.3°F9.6°C 79% Calm Calm 4.1 mph6.6 kmh 30.12 in1020.0 mb 0.00 in0.0 mm 0.00 in0.0 mm 0.00 in0.0 mm
05:55 PM 55.4°F13.0°C 49.0°F9.4°C 79% 3.5 mph SW5.6 kmh SW 4.1 mph6.6 kmh 30.12 in1020.0 mb 0.00 in0.0 mm 0.00 in0.0 mm 0.00 in0.0 mm
06:00 PM 55.2°F12.9°C 49.2°F9.6°C 80% 2.5 mph SSW4.0 kmh SSW 3.5 mph5.6 kmh 30.12 in1020.0 mb 0.00 in0.0 mm 0.00 in0.0 mm 0.00 in0.0 mm
06:05 PM 55.2°F12.9°C 49.2°F9.6°C 80% Calm Calm 3.8 mph6.1 kmh 30.12 in1020.0 mb 0.00 in0.0 mm 0.00 in0.0 mm 0.00 in0.0 mm
06:10 PM 55.0°F12.8°C 49.0°F9.4°C 80% 1.9 mph SW3.1 kmh SW 3.8 mph6.1 kmh 30.12 in1020.0 mb 0.00 in0.0 mm 0.00 in0.0 mm 0.00 in0.0 mm
06:15 PM 54.9°F12.7°C 48.8°F9.3°C 80% Calm Calm 2.5 mph4.0 kmh 30.12 in1020.0 mb 0.00 in0.0 mm 0.00 in0.0 mm 0.00 in0.0 mm
06:20 PM 54.7°F12.6°C 49.0°F9.4°C 81% 1.6 mph WSW2.6 kmh WSW 1.9 mph3.1 kmh 30.12 in1020.0 mb 0.00 in0.0 mm 0.00 in0.0 mm 0.00 in0.0 mm
06:25 PM 54.5°F12.5°C 48.8°F9.3°C 81% Calm Calm 1.9 mph3.1 kmh 30.12 in1020.0 mb 0.00 in0.0 mm 0.00 in0.0 mm 0.00 in0.0 mm
06:30 PM 54.3°F12.4°C 48.6°F9.2°C 81% 3.3 mph SW5.3 kmh SW 4.6 mph7.4 kmh 30.12 in1020.0 mb 0.00 in0.0 mm 0.00 in0.0 mm 0.00 in0.0 mm
06:35 PM 54.1°F12.3°C 48.4°F9.1°C 81% 3.0 mph SW4.8 kmh SW 4.6 mph7.4 kmh 30.12 in1020.0 mb 0.00 in0.0 mm 0.00 in0.0 mm 0.00 in0.0 mm
06:40 PM 54.0°F12.2°C 48.3°F9.1°C 81% 3.3 mph SSW5.3 kmh SSW 3.3 mph5.3 kmh 30.12 in1020.0 mb 0.00 in0.0 mm 0.00 in0.0 mm 0.00 in0.0 mm
06:45 PM 54.0°F12.2°C 48.3°F9.1°C 81% 2.7 mph SW4.3 kmh SW 3.3 mph5.3 kmh 30.12 in1020.0 mb 0.00 in0.0 mm 0.00 in0.0 mm 0.00 in0.0 mm
06:50 PM 53.8°F12.1°C 48.4°F9.1°C 82% 2.7 mph SW4.3 kmh SW 4.1 mph6.6 kmh 30.12 in1020.0 mb 0.00 in0.0 mm 0.00 in0.0 mm 0.00 in0.0 mm
06:55 PM 53.6°F12.0°C 48.2°F9.0°C 82% 2.7 mph SW4.3 kmh SW 4.1 mph6.6 kmh 30.12 in1020.0 mb 0.00 in0.0 mm 0.00 in0.0 mm 0.00 in0.0 mm
07:00 PM 53.4°F11.9°C 48.1°F8.9°C 82% 3.5 mph WSW5.6 kmh WSW 4.4 mph7.1 kmh 30.12 in1020.0 mb 0.00 in0.0 mm 0.00 in0.0 mm 0.00 in0.0 mm
07:05 PM 53.4°F11.9°C 48.1°F8.9°C 82% 3.3 mph SW5.3 kmh SW 5.2 mph8.4 kmh 30.12 in1020.0 mb 0.00 in0.0 mm 0.00 in0.0 mm 0.00 in0.0 mm
07:10 PM 53.2°F11.8°C 48.2°F9.0°C 83% 3.0 mph SW4.8 kmh SW 5.2 mph8.4 kmh 30.12 in1020.0 mb 0.00 in0.0 mm 0.00 in0.0 mm 0.00 in0.0 mm
07:15 PM 53.1°F11.7°C 48.0°F8.9°C 83% 1.6 mph SW2.6 kmh SW 3.8 mph6.1 kmh 30.12 in1020.0 mb 0.00 in0.0 mm 0.00 in0.0 mm 0.00 in0.0 mm
07:20 PM 52.9°F11.6°C 47.9°F8.8°C 83% 5.7 mph SW9.2 kmh SW 5.7 mph9.2 kmh 30.12 in1020.0 mb 0.00 in0.0 mm 0.00 in0.0 mm 0.00 in0.0 mm
07:25 PM 52.9°F11.6°C 47.9°F8.8°C 83% 1.9 mph SSW3.1 kmh SSW 5.7 mph9.2 kmh 30.15 in1021.0 mb 0.00 in0.0 mm 0.00 in0.0 mm 0.00 in0.0 mm
07:30 PM 52.9°F11.6°C 47.9°F8.8°C 83% 3.5 mph SSW5.6 kmh SSW 5.7 mph9.2 kmh 30.15 in1021.0 mb 0.00 in0.0 mm 0.00 in0.0 mm 0.00 in0.0 mm
07:35 PM 52.7°F11.5°C 47.7°F8.7°C 83% 1.9 mph SW3.1 kmh SW 4.9 mph7.9 kmh 30.15 in1021.0 mb 0.00 in0.0 mm 0.00 in0.0 mm 0.00 in0.0 mm
07:40 PM 52.5°F11.4°C 47.5°F8.6°C 83% 1.9 mph SW3.1 kmh SW 4.4 mph7.1 kmh 30.15 in1021.0 mb 0.00 in0.0 mm 0.00 in0.0 mm 0.00 in0.0 mm
07:45 PM 52.5°F11.4°C 47.8°F8.8°C 84% 3.8 mph SW6.1 kmh SW 4.4 mph7.1 kmh 30.15 in1021.0 mb 0.00 in0.0 mm 0.00 in0.0 mm 0.00 in0.0 mm
07:50 PM 52.3°F11.3°C 47.6°F8.7°C 84% Calm Calm 3.8 mph6.1 kmh 30.15 in1021.0 mb 0.00 in0.0 mm 0.00 in0.0 mm 0.00 in0.0 mm
07:55 PM 52.2°F11.2°C 47.5°F8.6°C 84% Calm Calm 3.8 mph6.1 kmh 30.15 in1021.0 mb 0.00 in0.0 mm 0.00 in0.0 mm 0.00 in0.0 mm
08:00 PM 52.2°F11.2°C 47.5°F8.6°C 84% 1.9 mph SSW3.1 kmh SSW 3.3 mph5.3 kmh 30.15 in1021.0 mb 0.00 in0.0 mm 0.00 in0.0 mm 0.00 in0.0 mm
08:05 PM 52.0°F11.1°C 47.3°F8.5°C 84% Calm Calm 3.0 mph4.8 kmh 30.15 in1021.0 mb 0.00 in0.0 mm 0.00 in0.0 mm 0.00 in0.0 mm
08:10 PM 52.0°F11.1°C 47.6°F8.7°C 85% 1.1 mph SW1.8 kmh SW 3.0 mph4.8 kmh 30.15 in1021.0 mb 0.00 in0.0 mm 0.00 in0.0 mm 0.00 in0.0 mm
08:15 PM 52.0°F11.1°C 47.6°F8.7°C 85% 1.4 mph S2.3 kmh S 1.9 mph3.1 kmh 30.15 in1021.0 mb 0.00 in0.0 mm 0.00 in0.0 mm 0.00 in0.0 mm
08:20 PM 52.0°F11.1°C 47.6°F8.7°C 85% Calm Calm 1.9 mph3.1 kmh 30.15 in1021.0 mb 0.00 in0.0 mm 0.00 in0.0 mm 0.00 in0.0 mm
08:25 PM 52.0°F11.1°C 47.6°F8.7°C 85% 1.1 mph SW1.8 kmh SW 1.4 mph2.3 kmh 30.15 in1021.0 mb 0.00 in0.0 mm 0.00 in0.0 mm 0.00 in0.0 mm
08:30 PM 51.8°F11.0°C 47.4°F8.6°C 85% Calm Calm 2.5 mph4.0 kmh 30.15 in1021.0 mb 0.00 in0.0 mm 0.00 in0.0 mm 0.00 in0.0 mm
08:35 PM 51.8°F11.0°C 47.4°F8.6°C 85% 1.1 mph S1.8 kmh S 3.5 mph5.6 kmh 30.15 in1021.0 mb 0.00 in0.0 mm 0.00 in0.0 mm 0.00 in0.0 mm
08:40 PM 51.8°F11.0°C 47.4°F8.6°C 85% 4.1 mph SSW6.6 kmh SSW 4.1 mph6.6 kmh 30.15 in1021.0 mb 0.00 in0.0 mm 0.00 in0.0 mm 0.00 in0.0 mm
08:45 PM 51.8°F11.0°C 47.4°F8.6°C 85% 3.3 mph SW5.3 kmh SW 4.1 mph6.6 kmh 30.15 in1021.0 mb 0.00 in0.0 mm 0.00 in0.0 mm 0.00 in0.0 mm
08:50 PM 51.8°F11.0°C 47.4°F8.6°C 85% Calm Calm 4.1 mph6.6 kmh 30.15 in1021.0 mb 0.00 in0.0 mm 0.00 in0.0 mm 0.00 in0.0 mm
08:55 PM 51.8°F11.0°C 47.4°F8.6°C 85% Calm Calm 3.0 mph4.8 kmh 30.15 in1021.0 mb 0.00 in0.0 mm 0.00 in0.0 mm 0.00 in0.0 mm
09:00 PM 51.8°F11.0°C 47.4°F8.6°C 85% Calm Calm 2.7 mph4.3 kmh 30.15 in1021.0 mb 0.00 in0.0 mm 0.00 in0.0 mm 0.00 in0.0 mm
09:05 PM 51.8°F11.0°C 47.7°F8.7°C 86% 3.3 mph SW5.3 kmh SW 3.3 mph5.3 kmh 30.15 in1021.0 mb 0.00 in0.0 mm 0.00 in0.0 mm 0.00 in0.0 mm
09:10 PM 51.8°F11.0°C 47.7°F8.7°C 86% 2.7 mph SW4.3 kmh SW 3.3 mph5.3 kmh 30.15 in1021.0 mb 0.00 in0.0 mm 0.00 in0.0 mm 0.00 in0.0 mm
09:15 PM 51.6°F10.9°C 47.6°F8.7°C 86% Calm Calm 3.3 mph5.3 kmh 30.15 in1021.0 mb 0.00 in0.0 mm 0.00 in0.0 mm 0.00 in0.0 mm
09:20 PM 51.6°F10.9°C 47.6°F8.7°C 86% 2.7 mph SW4.3 kmh SW 2.7 mph4.3 kmh 30.15 in1021.0 mb 0.00 in0.0 mm 0.00 in0.0 mm 0.00 in0.0 mm
09:25 PM 51.6°F10.9°C 47.6°F8.7°C 86% Calm Calm 2.7 mph4.3 kmh 30.15 in1021.0 mb 0.00 in0.0 mm 0.00 in0.0 mm 0.00 in0.0 mm
09:30 PM 51.4°F10.8°C 47.7°F8.7°C 87% Calm Calm 1.6 mph2.6 kmh 30.15 in1021.0 mb 0.00 in0.0 mm 0.00 in0.0 mm 0.00 in0.0 mm
09:35 PM 51.4°F10.8°C 47.7°F8.7°C 87% Calm Calm 1.6 mph2.6 kmh 30.15 in1021.0 mb 0.00 in0.0 mm 0.00 in0.0 mm 0.00 in0.0 mm
09:40 PM 51.4°F10.8°C 47.7°F8.7°C 87% 1.4 mph SW2.3 kmh SW 1.4 mph2.3 kmh 30.15 in1021.0 mb 0.00 in0.0 mm 0.00 in0.0 mm 0.00 in0.0 mm
09:45 PM 51.3°F10.7°C 47.5°F8.6°C 87% Calm Calm 1.9 mph3.1 kmh 30.15 in1021.0 mb 0.00 in0.0 mm 0.00 in0.0 mm 0.00 in0.0 mm
09:50 PM 51.3°F10.7°C 47.5°F8.6°C 87% Calm Calm 1.9 mph3.1 kmh 30.15 in1021.0 mb 0.00 in0.0 mm 0.00 in0.0 mm 0.00 in0.0 mm
09:55 PM 51.3°F10.7°C 47.5°F8.6°C 87% Calm Calm -- 30.15 in1021.0 mb 0.00 in0.0 mm 0.00 in0.0 mm 0.00 in0.0 mm
10:00 PM 51.3°F10.7°C 47.8°F8.8°C 88% Calm Calm 3.0 mph4.8 kmh 30.15 in1021.0 mb 0.00 in0.0 mm 0.00 in0.0 mm 0.00 in0.0 mm
10:05 PM 51.3°F10.7°C 47.8°F8.8°C 88% Calm Calm 3.0 mph4.8 kmh 30.15 in1021.0 mb 0.00 in0.0 mm 0.00 in0.0 mm 0.00 in0.0 mm
10:10 PM 51.3°F10.7°C 47.8°F8.8°C 88% Calm Calm 4.4 mph7.1 kmh 30.12 in1020.0 mb 0.00 in0.0 mm 0.00 in0.0 mm 0.00 in0.0 mm
10:15 PM 51.3°F10.7°C 47.8°F8.8°C 88% 2.5 mph SSW4.0 kmh SSW 4.4 mph7.1 kmh 30.12 in1020.0 mb 0.00 in0.0 mm 0.00 in0.0 mm 0.00 in0.0 mm
10:20 PM 51.4°F10.8°C 48.0°F8.9°C 88% 4.6 mph SSW7.4 kmh SSW 4.6 mph7.4 kmh 30.12 in1020.0 mb 0.00 in0.0 mm 0.00 in0.0 mm 0.00 in0.0 mm
10:25 PM 51.4°F10.8°C 48.3°F9.1°C 89% Calm Calm 4.6 mph7.4 kmh 30.12 in1020.0 mb 0.00 in0.0 mm 0.00 in0.0 mm 0.00 in0.0 mm
10:30 PM 51.4°F10.8°C 48.3°F9.1°C 89% 1.1 mph SW1.8 kmh SW 3.5 mph5.6 kmh 30.12 in1020.0 mb 0.00 in0.0 mm 0.00 in0.0 mm 0.00 in0.0 mm
10:35 PM 51.4°F10.8°C 48.3°F9.1°C 89% 2.5 mph SSW4.0 kmh SSW 2.5 mph4.0 kmh 30.12 in1020.0 mb 0.00 in0.0 mm 0.00 in0.0 mm 0.00 in0.0 mm
10:40 PM 51.4°F10.8°C 48.3°F9.1°C 89% 1.4 mph SW2.3 kmh SW 4.1 mph6.6 kmh 30.12 in1020.0 mb 0.00 in0.0 mm 0.00 in0.0 mm 0.00 in0.0 mm
10:45 PM 51.4°F10.8°C 48.3°F9.1°C 89% 1.1 mph SW1.8 kmh SW 4.1 mph6.6 kmh 30.12 in1020.0 mb 0.00 in0.0 mm 0.00 in0.0 mm 0.00 in0.0 mm
10:50 PM 51.4°F10.8°C 48.3°F9.1°C 89% 2.7 mph SSW4.3 kmh SSW 3.3 mph5.3 kmh 30.12 in1020.0 mb 0.00 in0.0 mm 0.00 in0.0 mm 0.00 in0.0 mm
10:55 PM 51.3°F10.7°C 48.1°F8.9°C 89% Calm Calm 3.3 mph5.3 kmh 30.12 in1020.0 mb 0.00 in0.0 mm 0.00 in0.0 mm 0.00 in0.0 mm
11:00 PM 51.3°F10.7°C 48.1°F8.9°C 89% Calm Calm 2.7 mph4.3 kmh 30.12 in1020.0 mb 0.00 in0.0 mm 0.00 in0.0 mm 0.00 in0.0 mm
11:05 PM 51.3°F10.7°C 48.1°F8.9°C 89% Calm Calm 2.7 mph4.3 kmh 30.12 in1020.0 mb 0.00 in0.0 mm 0.00 in0.0 mm 0.00 in0.0 mm
11:10 PM 51.1°F10.6°C 48.0°F8.9°C 89% 1.1 mph S1.8 kmh S 1.4 mph2.3 kmh 30.12 in1020.0 mb 0.00 in0.0 mm 0.00 in0.0 mm 0.00 in0.0 mm
11:15 PM 51.1°F10.6°C 48.0°F8.9°C 89% 1.4 mph SSW2.3 kmh SSW 3.8 mph6.1 kmh 30.12 in1020.0 mb 0.00 in0.0 mm 0.00 in0.0 mm 0.00 in0.0 mm
11:20 PM 51.1°F10.6°C 48.0°F8.9°C 89% Calm Calm 3.8 mph6.1 kmh 30.12 in1020.0 mb 0.00 in0.0 mm 0.00 in0.0 mm 0.00 in0.0 mm
11:25 PM 51.1°F10.6°C 48.2°F9.0°C 90% 1.1 mph SW1.8 kmh SW 3.8 mph6.1 kmh 30.12 in1020.0 mb 0.00 in0.0 mm 0.00 in0.0 mm 0.00 in0.0 mm
11:30 PM 50.9°F10.5°C 48.1°F8.9°C 90% 3.8 mph SSW6.1 kmh SSW 3.8 mph6.1 kmh 30.12 in1020.0 mb 0.00 in0.0 mm 0.00 in0.0 mm 0.00 in0.0 mm
11:35 PM 50.9°F10.5°C 48.1°F8.9°C 90% 3.0 mph SW4.8 kmh SW 3.8 mph6.1 kmh 30.12 in1020.0 mb 0.00 in0.0 mm 0.00 in0.0 mm 0.00 in0.0 mm
11:40 PM 50.9°F10.5°C 48.1°F8.9°C 90% 1.9 mph SW3.1 kmh SW 3.0 mph4.8 kmh 30.12 in1020.0 mb 0.00 in0.0 mm 0.00 in0.0 mm 0.00 in0.0 mm
11:45 PM 50.9°F10.5°C 48.1°F8.9°C 90% 1.1 mph WSW1.8 kmh WSW 4.6 mph7.4 kmh 30.12 in1020.0 mb 0.00 in0.0 mm 0.00 in0.0 mm 0.00 in0.0 mm
11:50 PM 50.7°F10.4°C 47.9°F8.8°C 90% 3.0 mph WSW4.8 kmh WSW 4.6 mph7.4 kmh 30.12 in1020.0 mb 0.00 in0.0 mm 0.00 in0.0 mm 0.00 in0.0 mm
11:55 PM 50.7°F10.4°C 47.9°F8.8°C 90% 1.6 mph SW2.6 kmh SW 5.2 mph8.4 kmh 30.12 in1020.0 mb 0.00 in0.0 mm 0.00 in0.0 mm 0.00 in0.0 mm